Time;durP1;ratioP1;P1;durP2;ratioP2;P2;SDS_P1;SDS_P2;PMS_P1;PMS_P2;Temp;Humidity;BMP_temperature;BMP_pressure;BME280_temperature;BME280_humidity;BME280_pressure;Samples;Min_cycle;Max_cycle;Signal;HPM_P1;HPM_P2
2022/09/30 00:01:48;;;;;;;18.10;16.23;;;;;;;8.82;100.00;95423.13;5008808;28;101709;-65
2022/09/30 00:04:16;;;;;;;17.93;16.13;;;;;;;8.79;100.00;95424.44;5013466;28;105117;-65
2022/09/30 00:07:17;;;;;;;18.00;16.10;;;;;;;8.76;100.00;95425.00;5010622;28;103497;-65
2022/09/30 00:09:46;;;;;;;17.80;16.00;;;;;;;8.76;100.00;95419.69;5009960;28;104040;-65
2022/09/30 00:12:13;;;;;;;17.63;15.90;;;;;;;8.78;100.00;95416.78;5010412;28;102056;-65
2022/09/30 00:14:40;;;;;;;16.57;14.97;;;;;;;8.82;100.00;95417.81;5010407;28;105071;-65
2022/09/30 00:17:07;;;;;;;16.10;14.50;;;;;;;8.81;100.00;95426.84;5009646;28;105207;-65
2022/09/30 00:19:34;;;;;;;16.60;15.00;;;;;;;8.84;100.00;95421.81;5010468;28;102011;-65
2022/09/30 00:22:16;;;;;;;17.03;15.37;;;;;;;8.82;100.00;95426.59;5010199;28;105287;-65
2022/09/30 00:24:45;;;;;;;17.60;15.90;;;;;;;8.86;100.00;95427.66;4936266;28;105435;-65
2022/09/30 00:27:22;;;;;;;16.13;14.47;;;;;;;8.90;100.00;95425.28;4933324;28;104997;-65
2022/09/30 00:29:49;;;;;;;18.90;17.00;;;;;;;8.91;100.00;95432.16;4932834;28;104433;-65
2022/09/30 00:32:17;;;;;;;18.13;16.30;;;;;;;8.88;100.00;95435.38;4933481;28;101952;-65
2022/09/30 00:34:44;;;;;;;18.13;16.33;;;;;;;8.82;100.00;95449.63;4933359;28;104892;-65
2022/09/30 00:37:22;;;;;;;17.63;15.03;;;;;;;8.82;100.00;95453.09;4932816;28;105496;-65
2022/09/30 00:39:50;;;;;;;17.50;15.83;;;;;;;8.85;100.00;95459.72;4933560;28;102123;-65
2022/09/30 00:42:18;;;;;;;16.17;14.70;;;;;;;8.83;100.00;95460.00;4933171;28;104853;-65
2022/09/30 00:44:51;;;;;;;16.83;15.27;;;;;;;8.86;100.00;95463.97;4932828;28;105271;-65
2022/09/30 00:48:00;;;;;;;15.37;13.93;;;;;;;8.87;100.00;95462.91;4936641;28;101888;-65
2022/09/30 00:50:32;;;;;;;15.57;14.17;;;;;;;8.90;100.00;95471.13;4932996;28;105177;-65
2022/09/30 00:53:05;;;;;;;17.43;15.73;;;;;;;8.93;100.00;95460.00;4933044;28;101929;-65
2022/09/30 00:55:42;;;;;;;17.90;16.20;;;;;;;8.93;100.00;95464.50;4932443;28;105060;-65
2022/09/30 00:58:15;;;;;;;17.97;16.07;;;;;;;8.87;100.00;95461.06;4932537;28;105154;-65
2022/09/30 01:00:42;;;;;;;18.73;16.87;;;;;;;8.80;100.00;95463.19;4933132;28;102036;-65
2022/09/30 01:03:10;;;;;;;17.67;16.00;;;;;;;8.77;100.00;95468.22;5007785;28;105578;-65
2022/09/30 01:05:38;;;;;;;18.43;16.60;;;;;;;8.73;100.00;95465.25;5009049;28;105135;-65
2022/09/30 01:08:08;;;;;;;19.17;17.27;;;;;;;8.80;100.00;95459.72;5009436;28;101788;-65
2022/09/30 01:10:37;;;;;;;18.30;16.53;;;;;;;8.78;100.00;95459.97;4995064;28;105041;-65
2022/09/30 01:13:06;;;;;;;19.13;17.33;;;;;;;8.86;100.00;95459.47;5009319;28;101953;-65
2022/09/30 01:16:17;;;;;;;20.67;18.63;;;;;;;8.89;100.00;95466.88;5009456;28;104732;-65
2022/09/30 01:19:01;;;;;;;18.37;16.63;;;;;;;8.85;100.00;95460.53;5010061;28;102831;-65
2022/09/30 01:26:10;;;;;;;18.60;16.70;;;;;;;8.81;100.00;95453.34;5007755;28;101982;-65
2022/09/30 01:29:13;;;;;;;19.57;17.67;;;;;;;8.81;100.00;95453.34;5010078;28;103432;-65
2022/09/30 01:31:54;;;;;;;18.20;16.43;;;;;;;8.85;100.00;95449.13;5007943;28;101782;-65
2022/09/30 01:34:32;;;;;;;17.80;16.00;;;;;;;8.93;100.00;95459.22;5010392;28;102210;-65
2022/09/30 01:37:41;;;;;;;18.93;17.17;;;;;;;8.99;100.00;95461.63;5011879;28;103817;-65
2022/09/30 01:40:21;;;;;;;20.43;18.33;;;;;;;9.00;100.00;95457.13;5008772;28;105086;-65
2022/09/30 01:42:56;;;;;;;19.30;17.30;;;;;;;9.06;100.00;95464.03;5009636;28;102539;-65
2022/09/30 01:45:33;;;;;;;19.43;17.50;;;;;;;9.03;100.00;95465.34;5010486;28;101656;-65
2022/09/30 01:48:05;;;;;;;19.93;17.87;;;;;;;9.03;100.00;95467.19;5010430;28;102900;-65
2022/09/30 01:51:04;;;;;;;18.17;16.47;;;;;;;9.00;100.00;95473.03;5009983;28;103135;-65
2022/09/30 01:53:38;;;;;;;20.23;18.13;;;;;;;8.97;100.00;95473.53;5008727;28;101930;-65
2022/09/30 01:56:13;;;;;;;21.90;19.67;;;;;;;8.83;100.00;95477.75;5009765;28;101888;-65
2022/09/30 01:58:45;;;;;;;19.77;17.87;;;;;;;8.80;100.00;95478.28;5008117;28;104232;-65
2022/09/30 02:01:18;;;;;;;19.03;17.23;;;;;;;8.85;100.00;95481.75;5013684;28;101820;-65
2022/09/30 02:03:52;;;;;;;20.27;18.20;;;;;;;8.89;100.00;95480.16;5009825;28;102727;-65
2022/09/30 02:06:58;;;;;;;19.87;17.87;;;;;;;8.91;100.00;95474.59;5010214;28;101648;-65
2022/09/30 02:09:28;;;;;;;19.57;17.63;;;;;;;8.92;100.00;95484.13;4992003;28;104831;-65
2022/09/30 02:12:00;;;;;;;18.67;16.73;;;;;;;8.95;100.00;95475.66;5008095;28;105258;-65
2022/09/30 02:14:29;;;;;;;20.97;18.87;;;;;;;8.98;100.00;95481.25;5010022;28;101937;-65
2022/09/30 02:17:01;;;;;;;18.87;16.97;;;;;;;8.99;100.00;95474.88;5008647;28;105589;-65
2022/09/30 02:19:36;;;;;;;19.47;17.47;;;;;;;9.06;100.00;95480.72;5008026;28;104366;-65
2022/09/30 02:22:07;;;;;;;20.40;18.20;;;;;;;9.04;100.00;95480.19;5007296;28;101761;-65
2022/09/30 02:24:36;;;;;;;20.43;18.37;;;;;;;8.96;100.00;95483.38;5011437;28;105651;-65
2022/09/30 02:27:42;;;;;;;22.40;20.10;;;;;;;8.99;100.00;95480.16;5008303;28;101930;-65
2022/09/30 02:30:12;;;;;;;22.03;19.83;;;;;;;9.05;100.00;95481.00;5008417;28;104079;-65
2022/09/30 02:32:44;;;;;;;21.73;19.50;;;;;;;9.09;100.00;95485.50;5007901;28;105402;-65
2022/09/30 02:35:20;;;;;;;23.23;20.57;;;;;;;9.05;100.00;95481.00;5008156;28;102159;-65
2022/09/30 02:37:51;;;;;;;23.57;20.97;;;;;;;9.01;100.00;95479.91;5008077;28;105610;-65
2022/09/30 02:40:25;;;;;;;23.87;21.27;;;;;;;9.05;100.00;95484.44;4991351;28;105710;-65
2022/09/30 02:42:52;;;;;;;21.97;19.77;;;;;;;9.05;100.00;95486.28;5008259;28;102031;-65
2022/09/30 02:45:22;;;;;;;24.50;21.00;;;;;;;8.97;100.00;95494.75;5010870;28;105145;-65
2022/09/30 02:52:23;;;;;;;25.33;21.03;;;;;;;8.99;100.00;95487.34;5009747;28;101883;-65
2022/09/30 02:55:05;;;;;;;25.90;22.23;;;;;;;8.95;100.00;95488.91;5006531;28;105645;-65
2022/09/30 02:57:49;;;;;;;26.40;22.37;;;;;;;9.00;100.00;95496.91;5007670;28;101912;-65
2022/09/30 03:00:16;;;;;;;25.30;22.60;;;;;;;8.98;100.00;95505.09;5008160;28;104767;-65
2022/09/30 03:02:43;;;;;;;28.80;23.67;;;;;;;8.97;100.00;95500.06;5008917;28;101910;-65
2022/09/30 03:05:11;;;;;;;26.27;23.23;;;;;;;8.92;100.00;95503.50;5007947;28;101755;-65
2022/09/30 03:11:29;;;;;;;24.40;20.93;;;;;;;8.78;100.00;95512.19;5009198;28;101651;-65
2022/09/30 03:14:18;;;;;;;27.00;22.10;;;;;;;8.85;100.00;95520.69;5007846;28;105154;-65
2022/09/30 03:17:05;;;;;;;24.10;21.50;;;;;;;8.92;100.00;95534.50;5007230;28;104422;-65
2022/09/30 03:20:06;;;;;;;24.27;21.60;;;;;;;8.93;100.00;95536.09;5007715;28;102147;-65
2022/09/30 03:22:50;;;;;;;25.50;22.03;;;;;;;8.93;100.00;95526.28;5007818;28;105105;-65
2022/09/30 03:25:29;;;;;;;25.13;22.17;;;;;;;8.96;100.00;95530.28;5007156;28;105729;-65
2022/09/30 03:28:09;;;;;;;24.37;21.57;;;;;;;8.94;100.00;95527.09;5007524;28;101821;-65
2022/09/30 03:30:43;;;;;;;23.07;20.60;;;;;;;8.99;100.00;95529.78;5007693;28;104764;-65
2022/09/30 03:33:19;;;;;;;24.93;22.03;;;;;;;8.97;100.00;95521.25;5008456;28;105050;-65
2022/09/30 03:36:25;;;;;;;29.37;23.27;;;;;;;8.92;100.00;95524.72;5014440;28;101856;-65
2022/09/30 03:39:02;;;;;;;26.47;21.43;;;;;;;8.93;100.00;95530.78;5010266;28;105823;-65
2022/09/30 03:41:35;;;;;;;27.00;22.70;;;;;;;8.94;100.00;95529.75;5010828;28;101922;-65
2022/09/30 03:44:08;;;;;;;23.43;20.80;;;;;;;8.95;100.00;95534.78;5011145;28;104948;-65
2022/09/30 03:46:45;;;;;;;24.47;21.73;;;;;;;8.94;100.00;95532.41;5010409;28;103655;-65
2022/09/30 03:49:16;;;;;;;25.40;21.60;;;;;;;8.93;100.00;95530.78;5010894;28;101884;-65
2022/09/30 03:52:07;;;;;;;24.23;21.60;;;;;;;9.00;100.00;95526.06;5010722;28;104856;-65
2022/09/30 03:54:37;;;;;;;23.97;21.03;;;;;;;8.98;100.00;95533.47;5009617;28;105391;-65
2022/09/30 03:57:04;;;;;;;24.50;21.83;;;;;;;8.99;100.00;95535.06;5010599;28;101816;-65
2022/09/30 03:59:32;;;;;;;24.70;22.00;;;;;;;8.94;100.00;95532.41;5013660;28;105233;-65
2022/09/30 04:01:59;;;;;;;27.57;22.80;;;;;;;8.84;100.00;95546.41;5011924;28;101805;-65
2022/09/30 04:04:27;;;;;;;25.70;22.63;;;;;;;8.79;100.00;95541.06;5011801;28;102303;-65
2022/09/30 04:06:54;;;;;;;24.77;22.07;;;;;;;8.73;100.00;95551.94;5011334;28;102675;-65
2022/09/30 04:09:20;;;;;;;24.70;21.93;;;;;;;8.64;100.00;95548.19;5010299;28;102046;-65
2022/09/30 04:11:47;;;;;;;26.67;22.30;;;;;;;8.69;100.00;95558.81;5010509;28;105112;-65
2022/09/30 04:14:14;;;;;;;28.50;22.83;;;;;;;8.68;100.00;95551.91;5010100;28;105025;-65
2022/09/30 04:21:12;;;;;;;26.97;22.57;;;;;;;8.69;100.00;95556.97;5008749;28;102015;-65
2022/09/30 04:23:42;;;;;;;25.93;22.30;;;;;;;8.75;100.00;95557.78;5012953;28;105611;-65
2022/09/30 04:26:13;;;;;;;28.00;23.13;;;;;;;8.82;100.00;95553.00;5010354;28;104741;-65
2022/09/30 04:28:40;;;;;;;25.50;22.80;;;;;;;8.83;100.00;95552.75;5009922;28;105296;-65
2022/09/30 04:31:07;;;;;;;25.67;22.73;;;;;;;8.89;100.00;95558.91;5010174;28;101948;-65
2022/09/30 04:33:34;;;;;;;23.80;21.20;;;;;;;8.87;100.00;95561.81;5010282;28;104792;-65
2022/09/30 04:36:40;;;;;;;26.17;23.37;;;;;;;8.88;100.00;95573.22;5009399;28;104281;-65
2022/09/30 04:39:08;;;;;;;23.47;20.97;;;;;;;8.90;100.00;95573.75;5009958;28;102176;-65
2022/09/30 04:41:37;;;;;;;27.27;22.83;;;;;;;8.87;100.00;95587.50;5010071;28;105212;-65
2022/09/30 04:44:05;;;;;;;24.83;22.13;;;;;;;8.80;100.00;95597.56;5008732;28;105834;-65
2022/09/30 04:47:07;;;;;;;24.47;21.67;;;;;;;8.78;100.00;95597.81;5016014;28;101908;-65
2022/09/30 04:49:33;;;;;;;26.93;23.23;;;;;;;8.77;100.00;95606.03;5009358;28;104935;-65
2022/09/30 04:52:00;;;;;;;26.83;23.80;;;;;;;8.77;100.00;95611.34;5009615;28;101918;-65
2022/09/30 04:54:30;;;;;;;28.30;24.60;;;;;;;8.69;100.00;95615.28;5013641;28;105313;-65
2022/09/30 04:56:58;;;;;;;28.23;24.63;;;;;;;8.61;100.00;95614.97;5029209;28;103989;-64
2022/09/30 04:59:25;;;;;;;28.03;23.93;;;;;;;8.55;100.00;95614.13;5029921;28;101805;-64
2022/09/30 05:01:52;;;;;;;30.13;24.53;;;;;;;8.59;100.00;95620.50;5029829;28;104022;-64
2022/09/30 05:04:19;;;;;;;28.80;24.80;;;;;;;8.61;100.00;95620.25;5029103;28;105343;-64
2022/09/30 05:10:56;;;;;;;29.80;24.43;;;;;;;8.62;100.00;95625.28;5027531;28;102122;-65
2022/09/30 05:13:24;;;;;;;30.97;26.07;;;;;;;8.66;100.00;95622.91;5030933;27;101685;-65
2022/09/30 05:16:13;;;;;;;30.80;24.90;;;;;;;8.68;100.00;95628.78;5012602;28;106900;-65
2022/09/30 05:18:44;;;;;;;34.70;26.20;;;;;;;8.65;100.00;95629.28;5028824;28;105315;-65
2022/09/30 05:24:38;;;;;;;32.50;25.07;;;;;;;8.53;100.00;95632.13;5029245;28;104891;-65
2022/09/30 05:27:40;;;;;;;34.03;26.07;;;;;;;8.59;100.00;95630.31;5028599;28;105733;-65
2022/09/30 05:30:08;;;;;;;34.67;26.40;;;;;;;8.61;100.00;95633.50;5030502;28;101868;-65
2022/09/30 05:32:35;;;;;;;32.67;25.97;;;;;;;8.64;100.00;95636.44;5033339;28;102567;-65
2022/09/30 05:35:03;;;;;;;32.30;25.73;;;;;;;8.70;100.00;95637.25;5026225;28;101908;-65
2022/09/30 05:38:02;;;;;;;33.30;26.00;;;;;;;8.69;100.00;95639.13;5030541;27;102314;-65
2022/09/30 05:40:29;;;;;;;35.37;26.90;;;;;;;8.68;100.00;95637.50;5030040;28;102820;-65
2022/09/30 05:42:58;;;;;;;31.40;26.07;;;;;;;8.73;100.00;95639.41;5030042;28;101817;-65
2022/09/30 05:45:26;;;;;;;38.17;28.57;;;;;;;8.70;100.00;95647.84;5029075;28;105523;-65
2022/09/30 05:47:54;;;;;;;37.07;27.30;;;;;;;8.75;100.00;95650.53;5029603;28;102587;-65
2022/09/30 05:53:44;;;;;;;31.33;25.37;;;;;;;8.81;100.00;95646.84;5030207;27;102899;-65
2022/09/30 05:56:53;;;;;;;29.70;24.60;;;;;;;8.86;100.00;95646.88;5031546;27;104736;-65
2022/09/30 05:59:21;;;;;;;30.83;24.40;;;;;;;8.93;100.00;95647.44;5011897;28;105825;-65
2022/09/30 06:01:49;;;;;;;30.37;24.77;;;;;;;8.99;100.00;95649.88;5028089;28;104252;-65
2022/09/30 06:04:33;;;;;;;30.77;24.87;;;;;;;9.08;100.00;95650.19;5028604;28;101909;-65
2022/09/30 06:08:07;;;;;;;33.13;26.97;;;;;;;9.08;100.00;95653.63;4931479;28;103874;-64
2022/09/30 06:10:34;;;;;;;31.40;25.87;;;;;;;9.27;100.00;95654.00;4911949;28;103189;-65
2022/09/30 06:13:03;;;;;;;32.50;26.53;;;;;;;9.34;100.00;95659.84;4928914;28;102360;-65
2022/09/30 06:15:32;;;;;;;33.17;26.47;;;;;;;9.38;100.00;95666.25;4942182;28;102996;-65
2022/09/30 06:17:59;;;;;;;31.87;25.20;;;;;;;9.45;100.00;95672.91;4928099;28;102652;-65
2022/09/30 06:20:27;;;;;;;33.67;27.07;;;;;;;9.42;100.00;95677.91;4915869;28;102008;-64
2022/09/30 06:22:55;;;;;;;32.00;26.13;;;;;;;9.40;100.00;95686.16;4911830;28;105076;-65
2022/09/30 06:25:22;;;;;;;34.10;27.90;;;;;;;9.46;100.00;95689.59;4923153;28;101918;-65
2022/09/30 06:28:28;;;;;;;33.93;26.60;;;;;;;9.54;100.00;95686.47;4931743;28;104845;-66
2022/09/30 06:30:56;;;;;;;32.53;25.07;;;;;;;9.64;100.00;95687.28;4931395;28;105483;-64
2022/09/30 06:33:23;;;;;;;34.53;27.00;;;;;;;9.75;100.00;95683.59;4931158;28;103452;-64
2022/09/30 06:36:06;;;;;;;36.13;27.30;;;;;;;9.88;100.00;95682.31;4920115;28;103738;-65
2022/09/30 06:38:34;;;;;;;33.93;26.33;;;;;;;10.15;100.00;95688.22;4911812;28;105167;-64
2022/09/30 06:41:20;;;;;;;34.17;26.97;;;;;;;10.34;100.00;95686.63;4906329;28;102458;-64
2022/09/30 06:43:47;;;;;;;31.27;25.97;;;;;;;10.47;100.00;95686.88;4874542;28;105164;-64
2022/09/30 06:50:40;;;;;;;25.87;22.20;;;;;;;10.45;100.00;95683.72;4929703;28;101930;-66
2022/09/30 06:53:11;;;;;;;26.57;20.97;;;;;;;10.44;100.00;95681.31;4930817;28;104839;-65
2022/09/30 06:55:39;;;;;;;23.63;21.03;;;;;;;10.31;100.00;95677.31;4927789;28;102226;-65
2022/09/30 06:58:10;;;;;;;22.60;19.53;;;;;;;10.38;100.00;95677.88;4912051;28;105238;-67
2022/09/30 07:00:38;;;;;;;25.43;19.97;;;;;;;10.47;100.00;95675.47;4911917;28;105310;-68
2022/09/30 07:03:08;;;;;;;22.00;19.63;;;;;;;10.56;100.00;95685.31;4911850;28;101930;-67
2022/09/30 07:05:36;;;;;;;24.27;19.70;;;;;;;10.58;100.00;95680.50;4923937;28;106187;-66
2022/09/30 07:08:04;;;;;;;21.63;18.73;;;;;;;10.70;100.00;95685.56;4920684;28;102115;-68
2022/09/30 07:10:33;;;;;;;19.67;17.77;;;;;;;10.85;100.00;95677.56;4939218;28;102806;-66
2022/09/30 07:13:01;;;;;;;19.43;17.27;;;;;;;10.88;100.00;95682.34;4918098;28;105788;-66
2022/09/30 07:15:28;;;;;;;18.80;16.90;;;;;;;10.81;100.00;95681.81;4915931;28;101963;-64
2022/09/30 07:17:56;;;;;;;17.90;16.10;;;;;;;10.98;100.00;95684.97;4915065;28;105377;-63
2022/09/30 07:20:28;;;;;;;18.93;17.03;;;;;;;10.99;100.00;95689.22;4949571;28;102710;-63
2022/09/30 07:22:56;;;;;;;18.60;16.60;;;;;;;11.29;100.00;95683.84;5011159;28;102036;-63
2022/09/30 07:25:24;;;;;;;19.33;17.07;;;;;;;11.66;100.00;95694.91;5011094;28;104809;-65
2022/09/30 07:27:53;;;;;;;23.50;20.93;;;;;;;11.58;100.00;95693.56;5014013;28;102727;-67
2022/09/30 07:30:20;;;;;;;19.10;16.63;;;;;;;11.47;100.00;95689.34;5010912;28;105654;-66
2022/09/30 07:32:48;;;;;;;17.53;15.73;;;;;;;11.40;100.00;95686.16;5010477;28;105641;-65
2022/09/30 07:35:15;;;;;;;16.33;14.63;;;;;;;11.52;100.00;95691.19;5012064;28;103198;-65
2022/09/30 07:37:45;;;;;;;16.30;14.60;;;;;;;12.04;100.00;95686.97;5010682;28;105401;-65
2022/09/30 07:40:12;;;;;;;15.53;12.70;;;;;;;12.47;100.00;95685.31;5010322;28;105519;-66
2022/09/30 07:42:44;;;;;;;11.27;10.17;;;;;;;12.46;100.00;95683.72;5010847;28;102012;-65
2022/09/30 07:45:14;;;;;;;10.83;9.73;;;;;;;12.82;100.00;95679.69;5010967;28;103910;-65
2022/09/30 07:48:37;;;;;;;10.87;9.87;;;;;;;12.76;100.00;95683.47;5020296;28;105851;-65
2022/09/30 07:51:24;;;;;;;10.77;9.77;;;;;;;12.87;100.00;95682.31;5016331;28;101803;-65
2022/09/30 07:53:53;;;;;;;10.63;9.53;;;;;;;12.72;100.00;95679.78;5010710;28;105761;-63
2022/09/30 07:56:25;;;;;;;10.40;9.40;;;;;;;12.54;100.00;95689.25;5012010;28;101886;-77
2022/09/30 07:58:55;;;;;;;9.97;9.07;;;;;;;12.37;100.00;95680.09;5012971;28;102836;-61
2022/09/30 08:01:24;;;;;;;9.70;8.83;;;;;;;12.57;100.00;95679.91;5011483;28;104597;-62
2022/09/30 08:03:53;;;;;;;10.07;9.17;;;;;;;12.56;100.00;95684.47;5028855;28;101908;-62
2022/09/30 08:06:52;;;;;;;10.03;9.13;;;;;;;12.75;100.00;95697.91;5011492;28;105245;-62
2022/09/30 08:09:21;;;;;;;10.03;9.13;;;;;;;12.66;100.00;95694.25;5017864;28;105125;-62
2022/09/30 08:11:49;;;;;;;8.80;8.10;;;;;;;12.58;100.00;95702.81;5011260;28;102280;-59
2022/09/30 08:14:18;;;;;;;6.20;5.70;;;;;;;11.84;100.00;95696.94;5019928;28;104727;-58
2022/09/30 08:16:50;;;;;;;6.10;5.57;;;;;;;11.91;100.00;95692.91;5027574;28;101852;-59
2022/09/30 08:19:20;;;;;;;6.97;6.27;;;;;;;11.72;100.00;95704.47;5029964;27;105664;-59
2022/09/30 08:21:55;;;;;;;7.63;6.93;;;;;;;12.12;100.00;95706.91;5031833;28;103237;-59
2022/09/30 08:24:23;;;;;;;6.50;5.90;;;;;;;12.06;100.00;95716.00;5031175;28;102331;-59
2022/09/30 08:26:59;;;;;;;6.80;6.10;;;;;;;12.09;100.00;95715.44;5031187;28;103706;-59
2022/09/30 08:29:26;;;;;;;5.97;5.47;;;;;;;12.20;100.00;95716.97;5031918;28;103160;-59
2022/09/30 08:31:55;;;;;;;6.23;5.73;;;;;;;12.36;100.00;95721.13;5031200;28;101846;-59
2022/09/30 08:34:22;;;;;;;6.10;5.50;;;;;;;12.64;100.00;95717.75;5022384;28;105513;-58
2022/09/30 08:37:31;;;;;;;6.57;5.97;;;;;;;13.14;100.00;95728.00;5033516;28;103906;-59
2022/09/30 08:39:58;;;;;;;6.23;5.73;;;;;;;13.33;100.00;95728.84;5010879;28;105298;-59
2022/09/30 08:42:43;;;;;;;6.47;5.97;;;;;;;13.40;100.00;95740.00;5011448;28;105842;-59
2022/09/30 08:45:19;;;;;;;6.10;5.57;;;;;;;13.47;100.00;95740.47;5024459;28;102062;-59
2022/09/30 08:48:07;;;;;;;5.70;5.20;;;;;;;13.43;100.00;95742.09;5010592;28;104910;-59
2022/09/30 08:50:49;;;;;;;5.03;4.53;;;;;;;13.57;100.00;95751.03;5009633;28;105828;-59
2022/09/30 08:53:23;;;;;;;4.83;4.23;;;;;;;13.63;100.00;95747.22;5010481;28;101814;-59
2022/09/30 08:55:53;;;;;;;4.60;4.20;;;;;;;13.79;100.00;95751.31;5009859;28;104962;-59
2022/09/30 08:58:26;;;;;;;3.73;3.43;;;;;;;13.73;100.00;95750.56;5024100;28;105858;-59
2022/09/30 09:00:58;;;;;;;3.70;3.40;;;;;;;13.71;100.00;95754.59;5028294;28;102110;-59
2022/09/30 09:03:30;;;;;;;3.80;3.50;;;;;;;13.89;100.00;95751.22;5030106;28;105047;-59
2022/09/30 09:06:18;;;;;;;3.73;3.50;;;;;;;13.87;100.00;95754.16;5026632;28;101980;-59
2022/09/30 09:09:20;;;;;;;4.30;3.77;;;;;;;14.22;100.00;95758.28;5010241;28;104871;-59
2022/09/30 09:12:04;;;;;;;3.70;3.40;;;;;;;14.14;100.00;95756.22;4967649;28;103251;-59
2022/09/30 09:14:49;;;;;;;4.00;3.60;;;;;;;14.04;100.00;95759.81;5010573;28;101878;-59
2022/09/30 09:17:56;;;;;;;3.90;3.60;;;;;;;14.78;100.00;95765.19;5019427;28;103954;-59
2022/09/30 09:20:48;;;;;;;3.40;3.20;;;;;;;14.80;100.00;95767.59;5023875;28;105562;-58
2022/09/30 09:23:15;;;;;;;3.60;3.40;;;;;;;14.68;100.00;95765.38;5033685;28;101934;-58
2022/09/30 09:26:10;;;;;;;3.20;3.00;;;;;;;14.12;100.00;95769.09;5029638;28;105373;-60
2022/09/30 09:28:42;;;;;;;4.03;3.50;;;;;;;13.71;100.00;95762.63;5030252;28;101744;-61
2022/09/30 09:31:15;;;;;;;3.20;3.00;;;;;;;13.58;100.00;95766.75;5029740;28;105724;-60
2022/09/30 09:33:43;;;;;;;3.60;3.30;;;;;;;13.62;100.00;95767.03;5029139;28;105547;-60
2022/09/30 09:36:27;;;;;;;3.20;3.00;;;;;;;13.76;100.00;95768.72;5009867;28;102031;-60
2022/09/30 09:39:10;;;;;;;3.97;3.67;;;;;;;14.06;100.00;95764.88;5010024;28;104845;-60
2022/09/30 09:41:44;;;;;;;3.50;3.20;;;;;;;13.99;100.00;95770.56;5009193;28;105573;-61
2022/09/30 09:44:24;;;;;;;3.40;3.20;;;;;;;13.94;100.00;95769.81;5009952;28;101827;-61
2022/09/30 09:47:06;;;;;;;2.50;2.37;;;;;;;14.05;100.00;95765.94;5012222;28;105771;-61
2022/09/30 09:49:35;;;;;;;2.27;2.17;;;;;;;14.38;100.00;95770.38;5011280;28;101926;-61
2022/09/30 09:52:33;;;;;;;3.70;3.37;;;;;;;13.23;100.00;95769.00;5009730;28;105099;-61
2022/09/30 09:54:59;;;;;;;3.57;3.30;;;;;;;13.33;100.00;95764.38;5009794;28;102667;-63
2022/09/30 09:58:04;;;;;;;4.03;3.73;;;;;;;13.25;100.00;95769.53;5010364;28;102038;-63
2022/09/30 10:03:20;;;;;;;2.20;2.00;;;;;;;14.06;100.00;95770.22;5030680;27;102672;-61
2022/09/30 10:06:05;;;;;;;1.90;1.80;;;;;;;14.49;100.00;95772.59;5018279;28;101875;-62
2022/09/30 10:08:37;;;;;;;2.07;1.97;;;;;;;14.00;100.00;95766.81;5029313;28;103554;-63
2022/09/30 10:11:06;;;;;;;1.40;1.40;;;;;;;14.34;100.00;95766.69;5032292;28;103786;-63
2022/09/30 10:13:42;;;;;;;1.50;1.40;;;;;;;14.72;100.00;95763.69;5030330;27;104404;-63
2022/09/30 10:16:37;;;;;;;1.80;1.70;;;;;;;15.19;100.00;95757.31;5028803;28;105407;-62
2022/09/30 10:19:05;;;;;;;2.63;2.23;;;;;;;14.82;100.00;95749.38;5022485;28;102129;-62
2022/09/30 10:21:40;;;;;;;3.73;3.43;;;;;;;14.34;100.00;95750.63;5013181;28;102366;-63
2022/09/30 10:24:20;;;;;;;4.00;3.70;;;;;;;14.63;100.00;95743.25;5028790;28;106252;-62
2022/09/30 10:26:48;;;;;;;3.97;3.67;;;;;;;14.05;100.00;95723.97;5030050;28;101782;-61
2022/09/30 10:29:27;;;;;;;4.10;3.80;;;;;;;14.25;100.00;95741.66;5007849;28;105637;-60
2022/09/30 10:31:54;;;;;;;3.93;3.30;;;;;;;14.49;100.00;95742.41;5008557;28;105300;-60
2022/09/30 10:34:27;;;;;;;3.00;2.80;;;;;;;14.25;100.00;95744.31;5012812;28;101879;-60
2022/09/30 10:36:56;;;;;;;3.13;2.83;;;;;;;14.67;100.00;95755.72;5014133;28;105109;-61
2022/09/30 10:39:27;;;;;;;2.50;2.40;;;;;;;15.20;100.00;95766.94;5011792;27;101777;-60
2022/09/30 10:42:02;;;;;;;2.70;2.50;;;;;;;15.38;100.00;95782.19;5012691;28;104844;-61
2022/09/30 10:44:30;;;;;;;4.50;2.30;;;;;;;15.48;100.00;95787.38;5011808;28;105812;-60
2022/09/30 10:47:04;;;;;;;2.40;2.20;;;;;;;15.51;100.00;95794.81;5032676;28;102033;-60
2022/09/30 10:49:37;;;;;;;3.00;2.07;;;;;;;15.37;100.00;95805.50;5032071;28;105416;-61
2022/09/30 10:52:04;;;;;;;2.00;1.80;;;;;;;15.29;100.00;95798.13;5011658;28;105459;-61
2022/09/30 10:54:48;;;;;;;1.50;1.40;;;;;;;14.98;100.00;95807.72;5024091;28;103288;-60
2022/09/30 10:57:20;;;;;;;1.97;1.10;;;;;;;14.99;100.00;95813.88;5035033;28;105176;-60
2022/09/30 10:59:48;;;;;;;1.60;1.50;;;;;;;14.76;100.00;95812.06;5034086;28;102019;-62
2022/09/30 11:02:23;;;;;;;1.37;1.30;;;;;;;14.84;100.00;95811.44;5022817;28;102953;-62
2022/09/30 11:05:00;;;;;;;1.50;1.50;;;;;;;14.93;100.00;95810.47;5013398;28;105483;-62
2022/09/30 11:07:41;;;;;;;1.80;1.30;;;;;;;15.09;100.00;95801.13;5012272;28;101957;-61
2022/09/30 11:10:25;;;;;;;1.20;1.20;;;;;;;15.04;100.00;95805.78;5012210;28;104764;-60
2022/09/30 11:13:01;;;;;;;1.70;1.60;;;;;;;15.25;100.00;95780.22;5023250;28;104066;-60
2022/09/30 11:15:32;;;;;;;1.40;1.30;;;;;;;15.38;100.00;95785.66;5033669;28;101794;-60
2022/09/30 11:18:05;;;;;;;1.63;1.53;;;;;;;15.11;100.00;95782.09;5012806;28;103680;-62
2022/09/30 11:20:52;;;;;;;1.43;1.30;;;;;;;15.29;100.00;95783.91;5035113;28;104586;-62
2022/09/30 11:23:25;;;;;;;1.53;1.43;;;;;;;15.37;100.00;95788.66;5032191;28;104956;-62
2022/09/30 11:26:07;;;;;;;1.57;1.47;;;;;;;15.61;100.00;95800.81;5031586;28;105692;-63
2022/09/30 11:28:49;;;;;;;1.40;1.30;;;;;;;15.54;100.00;95804.97;5031811;28;102107;-63
2022/09/30 11:31:28;;;;;;;1.60;1.50;;;;;;;15.40;100.00;95814.84;5028064;28;106046;-62
2022/09/30 11:34:10;;;;;;;1.97;1.50;;;;;;;15.57;100.00;95817.75;5021885;28;104433;-62
2022/09/30 11:37:02;;;;;;;1.73;1.40;;;;;;;15.59;100.00;95812.91;5033064;27;101796;-63
2022/09/30 11:39:51;;;;;;;1.03;1.03;;;;;;;15.62;100.00;95801.59;5020183;27;102516;-63
2022/09/30 11:42:28;;;;;;;1.77;1.20;;;;;;;15.62;100.00;95790.88;5016806;28;102996;-62
2022/09/30 11:45:03;;;;;;;1.17;1.17;;;;;;;15.98;100.00;95789.09;5023600;28;103614;-62
2022/09/30 11:47:53;;;;;;;2.03;1.17;;;;;;;16.24;100.00;95787.50;5012646;28;105171;-62
2022/09/30 11:50:46;;;;;;;1.10;1.00;;;;;;;15.43;100.00;95782.88;5019621;28;101884;-63
2022/09/30 11:53:26;;;;;;;1.00;1.00;;;;;;;15.54;100.00;95796.91;5015947;28;104102;-62
2022/09/30 11:56:25;;;;;;;5.50;2.47;;;;;;;14.87;100.00;95808.19;5017765;28;104332;-62
2022/09/30 11:58:59;;;;;;;2.30;2.10;;;;;;;15.04;100.00;95805.78;5012743;28;101709;-62
2022/09/30 12:01:31;;;;;;;2.87;2.50;;;;;;;14.61;100.00;95810.41;5009111;28;105223;-61
2022/09/30 12:04:04;;;;;;;2.50;2.20;;;;;;;14.63;100.00;95815.50;5013635;28;104243;-60
2022/09/30 12:06:35;;;;;;;2.57;2.47;;;;;;;14.02;100.00;95815.44;5020337;28;102102;-60
2022/09/30 12:09:09;;;;;;;2.07;1.97;;;;;;;13.35;100.00;95826.28;5017182;28;105907;-60
2022/09/30 12:11:43;;;;;;;2.50;2.30;;;;;;;13.40;100.00;95828.16;5019537;28;102533;-60
2022/09/30 12:14:18;;;;;;;2.80;2.60;;;;;;;13.55;100.00;95834.13;5020519;28;105351;-60
2022/09/30 12:16:49;;;;;;;3.90;2.87;;;;;;;13.48;100.00;95838.22;5018652;28;104378;-60
2022/09/30 12:19:22;;;;;;;3.33;2.80;;;;;;;13.74;100.00;95831.53;5014501;28;101980;-60
2022/09/30 12:21:57;;;;;;;3.70;3.00;;;;;;;13.48;100.00;95832.88;5010409;28;105012;-61
2022/09/30 12:24:32;;;;;;;3.43;3.10;;;;;;;13.67;100.00;95828.38;5010303;28;105225;-61
2022/09/30 12:27:00;;;;;;;4.60;2.63;;;;;;;14.00;100.00;95824.84;5012195;28;101685;-61